Time;durP1;ratioP1;P1;durP2;ratioP2;P2;SDS_P1;SDS_P2;PMS_P1;PMS_P2;Temp;Humidity;BMP_temperature;BMP_pressure;BME280_temperature;BME280_humidity;BME280_pressure;Samples;Min_cycle;Max_cycle;Signal;HPM_P1;HPM_P2
2023/12/11 00:02:01;;;;;;;4.68;1.13;;;;;;;8.93;100.00;98890.56;6086041;23;20018;-84
2023/12/11 00:04:28;;;;;;;3.38;0.98;;;;;;;8.93;100.00;98880.84;6110564;23;20049;-83
2023/12/11 00:06:55;;;;;;;1.95;0.80;;;;;;;8.96;100.00;98869.13;6110018;23;20116;-84
2023/12/11 00:09:22;;;;;;;3.88;1.67;;;;;;;8.97;100.00;98876.06;6110794;23;20398;-83
2023/12/11 00:11:49;;;;;;;3.30;1.08;;;;;;;8.98;100.00;98875.06;6085717;23;20523;-83
2023/12/11 00:14:16;;;;;;;4.70;1.13;;;;;;;8.98;100.00;98860.03;6085603;23;20060;-84
2023/12/11 00:16:44;;;;;;;2.95;1.10;;;;;;;9.00;100.00;98865.19;6085515;23;20714;-84
2023/12/11 00:19:11;;;;;;;3.58;1.00;;;;;;;8.99;100.00;98858.22;6085866;23;20509;-83
2023/12/11 00:21:38;;;;;;;5.00;1.10;;;;;;;8.91;100.00;98867.75;6110119;23;20402;-84
2023/12/11 00:24:06;;;;;;;1.45;0.85;;;;;;;8.98;100.00;98877.72;6062592;23;20054;-84
2023/12/11 00:26:33;;;;;;;2.17;1.00;;;;;;;8.94;100.00;98874.56;6085540;23;20030;-84
2023/12/11 00:29:00;;;;;;;4.70;1.10;;;;;;;8.97;100.00;98891.97;6062141;23;20517;-84
2023/12/11 00:31:26;;;;;;;2.42;0.90;;;;;;;8.97;100.00;98886.66;6086746;23;20105;-84
2023/12/11 00:33:53;;;;;;;2.42;0.93;;;;;;;8.99;100.00;98893.47;6109970;23;20355;-84
2023/12/11 00:36:20;;;;;;;4.00;0.90;;;;;;;8.98;100.00;98897.13;6086000;23;20026;-84
2023/12/11 00:38:47;;;;;;;3.08;0.90;;;;;;;8.97;100.00;98895.44;6085815;23;20014;-85
2023/12/11 00:41:17;;;;;;;1.73;0.82;;;;;;;8.96;100.00;98899.06;6061761;23;20387;-85
2023/12/11 00:43:44;;;;;;;4.13;1.38;;;;;;;8.93;100.00;98896.72;6061180;23;20451;-85
2023/12/11 00:46:17;;;;;;;2.70;0.90;;;;;;;8.97;100.00;98890.13;6036999;23;20030;-84
2023/12/11 00:48:44;;;;;;;2.72;1.13;;;;;;;8.95;100.00;98907.16;6084405;23;20086;-84
2023/12/11 00:51:18;;;;;;;1.77;1.00;;;;;;;8.97;100.00;98899.91;6038164;23;20022;-84
2023/12/11 00:53:45;;;;;;;2.30;1.02;;;;;;;8.99;100.00;98904.06;6109370;23;20026;-85
2023/12/11 00:56:13;;;;;;;7.15;0.93;;;;;;;9.02;100.00;98908.22;6085543;23;20030;-87
2023/12/11 00:58:40;;;;;;;2.92;0.80;;;;;;;9.03;100.00;98905.44;6037271;23;20085;-83
2023/12/11 01:01:07;;;;;;;1.60;0.70;;;;;;;9.05;100.00;98907.94;6085296;23;20022;-84
2023/12/11 01:03:36;;;;;;;0.90;0.70;;;;;;;9.02;100.00;98905.59;6045706;23;20037;-83
2023/12/11 01:06:03;;;;;;;3.08;1.00;;;;;;;9.06;100.00;98912.25;6038662;23;20508;-83
2023/12/11 01:08:30;;;;;;;1.98;0.70;;;;;;;9.08;100.00;98905.84;6109898;23;20458;-83
2023/12/11 01:10:58;;;;;;;1.02;0.60;;;;;;;9.10;100.00;98911.78;6085789;23;20022;-84
2023/12/11 01:13:25;;;;;;;2.92;0.70;;;;;;;9.08;100.00;98913.78;6086242;23;20045;-83
2023/12/11 01:15:52;;;;;;;1.83;0.60;;;;;;;9.12;100.00;98911.66;6061936;23;20026;-84
2023/12/11 01:18:19;;;;;;;4.63;1.00;;;;;;;9.13;100.00;98914.16;6086343;23;20098;-84
2023/12/11 01:20:46;;;;;;;2.53;0.93;;;;;;;9.15;100.00;98914.00;6085676;23;20077;-84
2023/12/11 01:23:13;;;;;;;4.22;0.80;;;;;;;9.14;100.00;98904.41;6062450;23;20041;-84
2023/12/11 01:25:39;;;;;;;4.63;0.93;;;;;;;9.15;100.00;98911.34;6061878;23;20037;-84
2023/12/11 01:28:06;;;;;;;3.10;0.80;;;;;;;9.16;100.00;98910.38;6086473;23;20018;-84
2023/12/11 01:30:33;;;;;;;2.85;0.70;;;;;;;9.14;100.00;98907.03;6084738;23;20026;-84
2023/12/11 01:33:02;;;;;;;2.45;0.82;;;;;;;9.16;100.00;98907.75;6109237;23;20093;-85
2023/12/11 01:35:29;;;;;;;2.42;0.80;;;;;;;9.17;100.00;98906.75;6062247;23;20029;-84
2023/12/11 01:37:56;;;;;;;3.67;1.10;;;;;;;9.18;100.00;98908.41;6085025;23;20599;-83
2023/12/11 01:40:23;;;;;;;2.58;0.82;;;;;;;9.19;100.00;98903.97;6060908;23;20023;-84
2023/12/11 01:42:50;;;;;;;3.47;1.35;;;;;;;9.18;100.00;98900.44;6085099;23;20073;-83
2023/12/11 01:45:23;;;;;;;2.88;1.13;;;;;;;9.18;100.00;98910.22;6085347;23;20073;-83
2023/12/11 01:47:51;;;;;;;0.75;0.75;;;;;;;9.19;100.00;98906.59;6061457;23;20629;-84
2023/12/11 01:50:18;;;;;;;2.67;1.05;;;;;;;9.15;100.00;98908.69;6060796;23;20394;-83
2023/12/11 01:52:44;;;;;;;1.45;0.90;;;;;;;9.15;100.00;98906.06;6060376;23;20036;-84
2023/12/11 01:55:11;;;;;;;3.95;1.23;;;;;;;9.17;100.00;98897.97;6109526;23;20054;-84
2023/12/11 01:57:38;;;;;;;2.80;0.93;;;;;;;9.19;100.00;98906.59;6061286;23;20026;-85
2023/12/11 02:00:07;;;;;;;1.90;0.80;;;;;;;9.11;100.00;98897.59;6108995;23;20053;-86
2023/12/11 02:02:35;;;;;;;1.35;0.80;;;;;;;9.15;100.00;98897.28;6084678;23;20023;-84
2023/12/11 02:05:02;;;;;;;0.98;0.70;;;;;;;9.15;100.00;98891.97;6085718;23;20022;-84
2023/12/11 02:07:29;;;;;;;2.70;0.90;;;;;;;9.11;100.00;98894.94;6084993;23;20030;-83
2023/12/11 02:09:56;;;;;;;2.88;1.00;;;;;;;9.15;100.00;98899.94;6084360;23;20034;-86
2023/12/11 02:12:23;;;;;;;0.73;0.68;;;;;;;9.15;100.00;98895.47;6061120;23;20350;-84
2023/12/11 02:14:50;;;;;;;2.20;0.90;;;;;;;9.17;100.00;98898.78;6109223;23;20117;-85
2023/12/11 02:17:17;;;;;;;2.35;0.90;;;;;;;9.18;100.00;98899.63;6062251;23;20034;-84
2023/12/11 02:19:43;;;;;;;3.03;0.90;;;;;;;9.20;100.00;98903.78;6108805;23;20014;-85
2023/12/11 02:22:11;;;;;;;3.17;0.80;;;;;;;9.20;100.00;98901.13;6085037;23;20765;-84
2023/12/11 02:24:42;;;;;;;3.85;0.95;;;;;;;9.17;100.00;98909.38;6037828;23;20022;-84
2023/12/11 02:27:09;;;;;;;3.70;0.95;;;;;;;9.17;100.00;98900.63;6037796;23;20065;-84
2023/12/11 02:29:36;;;;;;;1.60;0.82;;;;;;;9.19;100.00;98904.78;6060406;23;20027;-84
2023/12/11 02:32:04;;;;;;;3.80;1.30;;;;;;;9.19;100.00;98907.44;6109407;23;20026;-84
2023/12/11 02:34:30;;;;;;;5.30;1.25;;;;;;;9.19;100.00;98901.31;6037916;23;20101;-83
2023/12/11 02:36:57;;;;;;;2.35;1.05;;;;;;;9.20;100.00;98913.56;6061487;23;20404;-84
2023/12/11 02:39:24;;;;;;;3.40;0.82;;;;;;;9.18;100.00;98911.03;6108856;23;20022;-84
2023/12/11 02:41:51;;;;;;;1.48;0.77;;;;;;;9.17;100.00;98901.44;6110054;23;20022;-83
2023/12/11 02:44:18;;;;;;;1.15;0.63;;;;;;;9.17;100.00;98905.91;6061827;23;20030;-84
2023/12/11 02:46:44;;;;;;;3.65;1.10;;;;;;;9.19;100.00;98912.72;6062467;23;20042;-85
2023/12/11 02:49:11;;;;;;;2.75;0.88;;;;;;;9.20;100.00;98903.78;6112239;23;20022;-83
2023/12/11 02:51:38;;;;;;;4.15;0.90;;;;;;;9.21;100.00;98897.53;6039437;23;20074;-84
2023/12/11 02:54:05;;;;;;;1.88;1.00;;;;;;;9.17;100.00;98901.44;6087347;23;20705;-87
2023/12/11 02:56:32;;;;;;;5.05;1.10;;;;;;;9.19;100.00;98906.59;6063052;23;20395;-83
2023/12/11 02:58:59;;;;;;;2.30;1.00;;;;;;;9.20;100.00;98916.19;6062770;23;20022;-84
2023/12/11 03:01:25;;;;;;;4.00;1.20;;;;;;;9.17;100.00;98912.03;6063565;23;20437;-84
2023/12/11 03:03:52;;;;;;;3.88;1.58;;;;;;;9.20;100.00;98918.84;6085948;23;20030;-84
2023/12/11 03:06:19;;;;;;;4.13;0.90;;;;;;;9.19;100.00;98910.09;6038776;23;20023;-83
2023/12/11 03:08:46;;;;;;;2.72;0.90;;;;;;;9.18;100.00;98907.56;6086074;23;20346;-84
2023/12/11 03:11:13;;;;;;;2.80;1.35;;;;;;;9.20;100.00;98911.72;6085946;23;20023;-84
2023/12/11 03:13:40;;;;;;;3.08;1.23;;;;;;;9.21;100.00;98913.41;6061754;23;20030;-84
2023/12/11 03:16:12;;;;;;;1.73;0.80;;;;;;;9.20;100.00;98911.72;6087071;23;20025;-85
2023/12/11 03:18:40;;;;;;;5.15;1.02;;;;;;;9.23;100.00;98911.44;6062372;23;20026;-84
2023/12/11 03:21:07;;;;;;;2.03;1.02;;;;;;;9.22;100.00;98908.94;6062979;23;20037;-85
2023/12/11 03:23:34;;;;;;;5.53;1.05;;;;;;;9.20;100.00;98903.78;6038827;23;20026;-84
2023/12/11 03:26:01;;;;;;;2.35;0.90;;;;;;;9.22;100.00;98901.00;6110106;23;20038;-87
2023/12/11 03:28:28;;;;;;;4.65;0.98;;;;;;;9.24;100.00;98904.34;6062489;23;20050;-83
2023/12/11 03:30:55;;;;;;;2.47;0.77;;;;;;;9.23;100.00;98892.88;6062252;23;20026;-84
2023/12/11 03:33:22;;;;;;;3.63;0.95;;;;;;;9.24;100.00;98885.78;6062593;23;20834;-87
2023/12/11 03:35:49;;;;;;;2.85;1.00;;;;;;;9.25;100.00;98885.63;6062363;23;20097;-85
2023/12/11 03:38:15;;;;;;;1.67;1.15;;;;;;;9.24;100.00;98886.63;6134189;23;20465;-84
2023/12/11 03:40:42;;;;;;;4.18;1.27;;;;;;;9.25;100.00;98887.44;6110453;23;21062;-84
2023/12/11 03:43:10;;;;;;;3.05;0.98;;;;;;;9.25;100.00;98879.50;6087069;23;20455;-84
2023/12/11 03:45:37;;;;;;;1.83;1.10;;;;;;;9.27;100.00;98869.59;6086077;23;20093;-84
2023/12/11 03:48:04;;;;;;;1.67;0.85;;;;;;;9.26;100.00;98875.84;6111848;23;20391;-84
2023/12/11 03:50:31;;;;;;;2.80;1.02;;;;;;;9.26;100.00;98868.78;6085473;23;20455;-84
2023/12/11 03:52:58;;;;;;;2.83;1.20;;;;;;;9.28;100.00;98863.31;6062020;23;20093;-84
2023/12/11 03:55:25;;;;;;;3.55;1.55;;;;;;;9.27;100.00;98865.13;6062641;23;20073;-84
2023/12/11 03:57:52;;;;;;;5.95;1.52;;;;;;;9.27;100.00;98859.00;6038182;23;20034;-84
2023/12/11 04:00:19;;;;;;;1.33;1.20;;;;;;;9.29;100.00;98863.16;6037878;23;20033;-85
2023/12/11 04:02:46;;;;;;;8.25;1.83;;;;;;;9.30;100.00;98858.69;6086513;23;20019;-84
2023/12/11 04:05:13;;;;;;;7.50;1.80;;;;;;;9.30;100.00;98848.91;6062254;23;20055;-84
2023/12/11 04:07:39;;;;;;;12.65;2.40;;;;;;;9.30;100.00;98848.09;6109388;23;20026;-85
2023/12/11 04:10:07;;;;;;;10.50;2.83;;;;;;;9.30;100.00;98848.91;6109671;23;20551;-84
2023/12/11 04:12:34;;;;;;;10.05;3.10;;;;;;;9.29;100.00;98847.28;6061022;23;20022;-84
2023/12/11 04:15:01;;;;;;;4.82;1.33;;;;;;;9.30;100.00;98850.75;6085523;23;20094;-84
2023/12/11 04:17:27;;;;;;;4.82;1.27;;;;;;;9.31;100.00;98839.16;6038779;23;20470;-84
2023/12/11 04:19:57;;;;;;;4.63;1.50;;;;;;;9.31;100.00;98849.75;6034158;23;20050;-84
2023/12/11 04:22:24;;;;;;;8.13;1.65;;;;;;;9.30;100.00;98851.56;6061328;23;20058;-84
2023/12/11 04:24:51;;;;;;;13.13;2.85;;;;;;;9.31;100.00;98852.41;6037396;23;20030;-87
2023/12/11 04:27:18;;;;;;;5.22;2.20;;;;;;;9.30;100.00;98851.56;6086270;23;20023;-84
2023/12/11 04:29:44;;;;;;;4.82;1.63;;;;;;;9.31;100.00;98863.00;6061015;23;20049;-84
2023/12/11 04:32:11;;;;;;;2.55;1.20;;;;;;;9.31;100.00;98865.63;6086981;23;20070;-84
2023/12/11 04:34:38;;;;;;;4.18;1.80;;;;;;;9.29;100.00;98859.69;6086278;23;20093;-84
2023/12/11 04:37:05;;;;;;;5.40;1.40;;;;;;;9.31;100.00;98850.59;6109974;23;20328;-84
2023/12/11 04:39:32;;;;;;;2.58;0.90;;;;;;;9.36;100.00;98850.13;6037516;23;20022;-84
2023/12/11 04:41:59;;;;;;;4.50;1.10;;;;;;;9.34;100.00;98852.94;6085785;23;20335;-84
2023/12/11 04:44:26;;;;;;;5.47;1.10;;;;;;;9.36;100.00;98858.06;6086109;23;20827;-86
2023/12/11 04:46:55;;;;;;;2.72;1.10;;;;;;;9.36;100.00;98852.78;6034286;23;20120;-89
2023/12/11 04:49:26;;;;;;;6.15;1.20;;;;;;;9.35;100.00;98848.47;6032167;23;20203;-89
2023/12/11 04:51:53;;;;;;;5.10;1.23;;;;;;;9.38;100.00;98857.94;6076573;23;20093;-89
2023/12/11 04:54:20;;;;;;;1.33;0.90;;;;;;;9.40;100.00;98863.91;6064861;23;20097;-91
2023/12/11 04:56:47;;;;;;;3.42;1.00;;;;;;;9.40;100.00;98866.56;6111771;23;20038;-93
2023/12/11 04:59:14;;;;;;;2.78;1.10;;;;;;;9.40;100.00;98872.69;6112632;23;20018;-92
2023/12/11 05:01:41;;;;;;;1.92;0.80;;;;;;;9.42;100.00;98869.91;6063382;23;20045;-92
2023/12/11 05:04:08;;;;;;;1.65;1.00;;;;;;;9.43;100.00;98875.03;6112328;23;20018;-92
2023/12/11 05:06:35;;;;;;;2.75;1.10;;;;;;;9.43;100.00;98867.09;6086406;23;20025;-91
2023/12/11 05:09:02;;;;;;;2.25;1.00;;;;;;;9.44;100.00;98870.56;6088071;23;20386;-92
2023/12/11 05:11:29;;;;;;;2.67;1.13;;;;;;;9.45;100.00;98862.47;6059925;23;20018;-84
2023/12/11 05:14:03;;;;;;;1.70;0.88;;;;;;;9.48;100.00;98867.47;6108657;23;20800;-84
2023/12/11 05:16:29;;;;;;;2.85;1.00;;;;;;;9.48;100.00;98861.34;6110163;23;20029;-84
2023/12/11 05:18:56;;;;;;;1.75;1.08;;;;;;;9.48;100.00;98845.44;6084387;23;20034;-84
2023/12/11 05:21:23;;;;;;;8.07;1.35;;;;;;;9.49;100.00;98847.94;6109191;23;20074;-85
2023/12/11 05:23:52;;;;;;;3.53;1.10;;;;;;;9.50;100.00;98838.16;6084974;23;20018;-85
2023/12/11 05:26:19;;;;;;;2.05;0.95;;;;;;;9.52;100.00;98841.50;6024614;23;20097;-86
2023/12/11 05:28:47;;;;;;;2.22;1.10;;;;;;;9.51;100.00;98834.53;6084501;23;20026;-85
2023/12/11 05:31:15;;;;;;;0.80;0.80;;;;;;;9.53;100.00;98836.03;6109031;23;20033;-86
2023/12/11 05:33:42;;;;;;;1.65;1.10;;;;;;;9.55;100.00;98841.19;6049665;23;20028;-85
2023/12/11 05:36:09;;;;;;;2.15;0.90;;;;;;;9.56;100.00;98829.59;6133736;23;20033;-85
2023/12/11 05:38:36;;;;;;;1.75;0.90;;;;;;;9.57;100.00;98826.81;6083149;23;20030;-85
2023/12/11 05:41:03;;;;;;;3.60;1.63;;;;;;;9.59;100.00;98815.19;6085815;23;20085;-84
2023/12/11 05:43:30;;;;;;;1.98;1.10;;;;;;;9.59;100.00;98815.19;6082642;23;20061;-85
2023/12/11 05:45:57;;;;;;;4.25;1.20;;;;;;;9.58;100.00;98806.41;6058298;23;20056;-86
2023/12/11 05:48:24;;;;;;;4.40;1.00;;;;;;;9.60;100.00;98806.28;6108310;23;20466;-86
2023/12/11 05:50:51;;;;;;;1.75;1.27;;;;;;;9.60;100.00;98803.63;6106798;23;20030;-85
2023/12/11 05:53:18;;;;;;;2.70;1.23;;;;;;;9.63;100.00;98811.25;6109562;23;20362;-86
2023/12/11 05:55:44;;;;;;;2.55;1.60;;;;;;;9.62;100.00;98818.38;6084036;23;20058;-85
2023/12/11 05:58:11;;;;;;;1.58;1.25;;;;;;;9.60;100.00;98819.53;6109510;23;20069;-86
2023/12/11 06:00:38;;;;;;;2.15;1.08;;;;;;;9.61;100.00;98823.84;6108312;23;20394;-85
2023/12/11 06:03:05;;;;;;;4.65;1.50;;;;;;;9.61;100.00;98824.66;6060638;23;20024;-85
2023/12/11 06:05:32;;;;;;;2.55;1.20;;;;;;;9.62;100.00;98812.25;6060046;23;20026;-85
2023/12/11 06:07:59;;;;;;;1.92;0.95;;;;;;;9.64;100.00;98823.53;6085191;23;20069;-85
2023/12/11 06:10:26;;;;;;;3.55;0.90;;;;;;;9.62;100.00;98815.75;6083839;23;20033;-85
2023/12/11 06:12:53;;;;;;;3.15;1.13;;;;;;;9.61;100.00;98822.00;6059171;23;20490;-85
2023/12/11 06:15:20;;;;;;;1.52;1.02;;;;;;;9.62;100.00;98823.69;6084560;23;20027;-85
2023/12/11 06:17:47;;;;;;;6.20;1.40;;;;;;;9.64;100.00;98836.78;6083473;23;20451;-85
2023/12/11 06:20:14;;;;;;;3.53;1.08;;;;;;;9.64;100.00;98836.78;6105378;23;20032;-86
2023/12/11 06:22:41;;;;;;;0.90;0.90;;;;;;;9.66;100.00;98835.63;6059533;23;20026;-85
2023/12/11 06:25:08;;;;;;;1.38;1.00;;;;;;;9.64;100.00;98819.06;6084235;23;20350;-85
2023/12/11 06:27:35;;;;;;;3.58;0.93;;;;;;;9.69;100.00;98819.44;6060363;23;20030;-87
2023/12/11 06:30:06;;;;;;;2.88;1.10;;;;;;;9.70;100.00;98801.72;6083721;23;20045;-86
2023/12/11 06:32:34;;;;;;;4.45;1.23;;;;;;;9.71;100.00;98804.19;6060076;23;20026;-85
2023/12/11 06:35:00;;;;;;;3.22;0.90;;;;;;;9.68;100.00;98806.34;6060162;23;20026;-85
2023/12/11 06:37:28;;;;;;;3.33;1.27;;;;;;;9.70;100.00;98799.06;6060393;23;20034;-85
2023/12/11 06:39:55;;;;;;;2.22;1.00;;;;;;;9.70;100.00;98796.41;6107243;23;20029;-85
2023/12/11 06:42:23;;;;;;;2.25;1.05;;;;;;;9.69;100.00;98795.59;6083924;23;20022;-81
2023/12/11 06:44:49;;;;;;;1.45;0.85;;;;;;;9.74;100.00;98805.69;6058212;23;20327;-82
2023/12/11 06:47:17;;;;;;;1.55;0.90;;;;;;;9.73;100.00;98804.03;6059873;23;20446;-81
2023/12/11 06:49:46;;;;;;;2.08;1.00;;;;;;;9.74;100.00;98805.69;6081656;23;20513;-82
2023/12/11 06:52:14;;;;;;;5.43;1.17;;;;;;;9.74;100.00;98801.25;6059125;23;20022;-82
2023/12/11 06:54:40;;;;;;;5.25;2.55;;;;;;;9.76;100.00;98793.13;6082315;23;20018;-82
2023/12/11 06:57:08;;;;;;;4.28;1.27;;;;;;;9.76;100.00;98795.78;6036201;23;20018;-81
2023/12/11 06:59:34;;;;;;;4.82;1.38;;;;;;;9.75;100.00;98788.81;6058153;23;20046;-81
2023/12/11 07:02:02;;;;;;;3.28;0.90;;;;;;;9.75;100.00;98788.81;6107530;23;20081;-82
2023/12/11 07:04:29;;;;;;;3.20;1.67;;;;;;;9.72;100.00;98774.06;6107796;23;20019;-81
2023/12/11 07:06:56;;;;;;;3.17;1.50;;;;;;;9.72;100.00;98771.41;6035184;23;20030;-81
2023/12/11 07:09:24;;;;;;;5.82;1.17;;;;;;;9.73;100.00;98788.97;6107091;23;20037;-83
2023/12/11 07:11:51;;;;;;;2.47;1.45;;;;;;;9.74;100.00;98782.69;6082645;23;20018;-81
2023/12/11 07:14:18;;;;;;;3.25;1.00;;;;;;;9.74;100.00;98788.00;6058955;23;20034;-81
2023/12/11 07:16:45;;;;;;;3.92;1.00;;;;;;;9.71;100.00;98784.81;6082754;23;20046;-81
2023/12/11 07:19:12;;;;;;;5.10;1.20;;;;;;;9.75;100.00;98780.88;6106849;23;20045;-81
2023/12/11 07:21:42;;;;;;;3.30;1.20;;;;;;;9.74;100.00;98779.19;6058809;23;20072;-81
2023/12/11 07:24:09;;;;;;;8.43;2.00;;;;;;;9.75;100.00;98788.81;6083351;23;20033;-81
2023/12/11 07:26:36;;;;;;;4.38;2.20;;;;;;;9.73;100.00;98791.63;6058827;23;20034;-82
2023/12/11 07:29:04;;;;;;;9.85;4.07;;;;;;;9.76;100.00;98801.06;6082038;23;20018;-81
2023/12/11 07:31:31;;;;;;;7.43;3.95;;;;;;;9.74;100.00;98797.75;6082317;23;20375;-82
2023/12/11 07:33:57;;;;;;;7.57;4.05;;;;;;;9.76;100.00;98807.19;6109765;23;20034;-82
2023/12/11 07:36:24;;;;;;;9.05;3.92;;;;;;;9.77;100.00;98805.41;6036722;23;20057;-81
2023/12/11 07:38:51;;;;;;;8.07;2.35;;;;;;;9.74;100.00;98793.28;6059246;23;20031;-81
2023/12/11 07:41:22;;;;;;;4.85;1.95;;;;;;;9.76;100.00;98798.44;6036726;23;20026;-81
2023/12/11 07:43:49;;;;;;;7.40;1.60;;;;;;;9.77;100.00;98786.84;6083729;23;20030;-82
2023/12/11 07:46:21;;;;;;;2.17;1.38;;;;;;;9.74;100.00;98790.66;6109105;23;20050;-81
2023/12/11 07:48:48;;;;;;;3.45;1.20;;;;;;;9.78;100.00;98799.09;6108296;23;20023;-81
2023/12/11 07:51:19;;;;;;;4.82;1.20;;;;;;;9.77;100.00;98794.81;6059939;23;20026;-81
2023/12/11 07:53:46;;;;;;;3.63;1.30;;;;;;;9.80;100.00;98791.00;6108046;23;20029;-81
2023/12/11 07:56:23;;;;;;;3.08;1.00;;;;;;;9.78;100.00;98780.56;6059862;23;20018;-81
2023/12/11 07:58:51;;;;;;;3.95;1.42;;;;;;;9.83;100.00;98774.78;6083314;23;20366;-80
2023/12/11 08:01:18;;;;;;;7.30;1.48;;;;;;;9.83;100.00;98767.66;6084220;23;20028;-81
2023/12/11 08:03:46;;;;;;;4.32;1.50;;;;;;;9.83;100.00;98780.09;6036101;23;20407;-82
2023/12/11 08:06:13;;;;;;;6.55;1.75;;;;;;;9.84;100.00;98782.56;6084774;23;20018;-82
2023/12/11 08:08:45;;;;;;;7.10;1.65;;;;;;;9.87;100.00;98776.97;6059875;23;20030;-81
2023/12/11 08:11:27;;;;;;;9.85;2.05;;;;;;;9.86;100.00;98788.53;6107493;23;20026;-81
2023/12/11 08:13:54;;;;;;;8.68;2.65;;;;;;;9.91;100.00;98785.44;6083231;23;20045;-82
2023/12/11 08:16:21;;;;;;;4.82;1.88;;;;;;;9.90;100.00;98786.44;6084749;23;20075;-82
2023/12/11 08:18:48;;;;;;;7.43;2.47;;;;;;;9.91;100.00;98780.94;6035568;23;20101;-82
2023/12/11 08:21:18;;;;;;;8.50;2.15;;;;;;;9.90;100.00;98767.88;6083966;23;20025;-81
2023/12/11 08:23:46;;;;;;;4.50;1.40;;;;;;;9.89;100.00;98769.66;6058744;23;20034;-80
2023/12/11 08:26:18;;;;;;;5.45;2.22;;;;;;;9.89;100.00;98766.19;6060126;23;20062;-80
2023/12/11 08:28:49;;;;;;;4.03;1.45;;;;;;;9.88;100.00;98772.50;6058809;23;20051;-81
2023/12/11 08:31:16;;;;;;;5.30;1.73;;;;;;;9.88;100.00;98786.56;6059925;23;20387;-80
2023/12/11 08:33:43;;;;;;;4.72;1.30;;;;;;;9.89;100.00;98790.06;6083286;23;20409;-81
2023/12/11 08:36:11;;;;;;;4.85;1.50;;;;;;;9.89;100.00;98784.75;6082696;23;20022;-81
2023/12/11 08:38:38;;;;;;;6.93;1.75;;;;;;;9.89;100.00;98782.91;6106811;23;20117;-80
2023/12/11 08:41:05;;;;;;;4.00;1.60;;;;;;;9.88;100.00;98791.06;6083460;23;20030;-80
2023/12/11 08:43:31;;;;;;;7.35;2.15;;;;;;;9.91;100.00;98790.72;6082409;23;20595;-80
2023/12/11 08:45:58;;;;;;;5.38;1.85;;;;;;;9.89;100.00;98801.47;6059641;23;20026;-80
2023/12/11 08:48:25;;;;;;;4.78;1.10;;;;;;;9.91;100.00;98806.63;6108911;23;20030;-80
2023/12/11 08:50:54;;;;;;;8.07;1.50;;;;;;;9.87;100.00;98803.47;6058491;23;20488;-81
2023/12/11 08:53:21;;;;;;;1.92;1.17;;;;;;;9.91;100.00;98807.47;6060238;23;20019;-81
2023/12/11 08:55:49;;;;;;;4.85;1.13;;;;;;;9.91;100.00;98810.13;6059463;23;20026;-81
2023/12/11 08:58:16;;;;;;;4.68;2.45;;;;;;;9.93;100.00;98805.50;6058776;23;20127;-81
2023/12/11 09:00:44;;;;;;;6.20;1.67;;;;;;;9.94;100.00;98803.66;6082985;23;20032;-83
2023/12/11 09:03:11;;;;;;;4.80;1.73;;;;;;;9.97;100.00;98808.66;6084884;23;20022;-81
2023/12/11 09:05:38;;;;;;;6.72;1.80;;;;;;;9.96;100.00;98805.19;6083806;23;20093;-81
2023/12/11 09:08:05;;;;;;;4.10;2.10;;;;;;;9.99;100.00;98804.84;6132070;23;20038;-84
2023/12/11 09:10:31;;;;;;;3.13;1.60;;;;;;;9.99;100.00;98807.50;6107675;23;20026;-81
2023/12/11 09:12:59;;;;;;;3.05;1.02;;;;;;;10.01;100.00;98820.63;6106954;23;20026;-80
2023/12/11 09:15:26;;;;;;;6.28;1.33;;;;;;;10.03;100.00;98823.13;6082976;23;20438;-80
2023/12/11 09:17:53;;;;;;;4.57;1.70;;;;;;;10.07;100.00;98819.16;6107591;23;20026;-81
2023/12/11 09:20:20;;;;;;;4.10;1.20;;;;;;;10.10;100.00;98818.84;6082066;23;20593;-81
2023/12/11 09:22:47;;;;;;;3.67;0.90;;;;;;;10.08;100.00;98821.66;6083607;23;20022;-81
2023/12/11 09:25:14;;;;;;;3.80;1.35;;;;;;;10.12;100.00;98820.34;6059314;23;20026;-82
2023/12/11 09:27:41;;;;;;;7.22;1.40;;;;;;;10.12;100.00;98825.66;6083355;23;20688;-81
2023/12/11 09:30:11;;;;;;;3.75;1.40;;;;;;;10.15;100.00;98821.84;6083304;23;20053;-82
2023/12/11 09:32:38;;;;;;;4.35;2.03;;;;;;;10.18;100.00;98822.38;6059891;23;20029;-82
2023/12/11 09:35:06;;;;;;;6.63;1.38;;;;;;;10.22;100.00;98821.06;6058938;23;20095;-82
2023/12/11 09:37:33;;;;;;;3.55;1.15;;;;;;;10.24;100.00;98825.38;6083628;23;20026;-82
2023/12/11 09:40:00;;;;;;;4.20;1.42;;;;;;;10.29;100.00;98825.78;6082481;23;20042;-82
2023/12/11 09:42:27;;;;;;;2.08;1.20;;;;;;;10.32;100.00;98828.09;6083940;23;20065;-83
2023/12/11 09:44:54;;;;;;;5.85;1.38;;;;;;;10.35;100.00;98818.00;6082206;23;20105;-82
2023/12/11 09:47:28;;;;;;;3.92;1.00;;;;;;;10.36;100.00;98810.88;6059656;23;20022;-81
2023/12/11 09:49:56;;;;;;;5.25;1.60;;;;;;;10.34;100.00;98819.00;6058562;23;20030;-83
2023/12/11 09:52:23;;;;;;;8.38;1.38;;;;;;;10.39;100.00;98805.25;6058501;23;20030;-82
2023/12/11 09:54:50;;;;;;;5.22;1.40;;;;;;;10.38;100.00;98814.19;6082193;23;20073;-81
2023/12/11 09:57:17;;;;;;;6.25;1.95;;;;;;;10.39;100.00;98807.91;6106175;23;20102;-81
2023/12/11 09:59:46;;;;;;;3.13;1.42;;;;;;;10.37;100.00;98809.88;6082194;23;20478;-82
2023/12/11 10:02:15;;;;;;;10.48;2.47;;;;;;;10.39;100.00;98811.38;6107598;23;20088;-82
2023/12/11 10:05:00;;;;;;;12.55;2.00;;;;;;;10.36;100.00;98811.72;6107143;23;20025;-81
2023/12/11 10:07:27;;;;;;;12.00;2.72;;;;;;;10.39;100.00;98810.56;6107952;23;20030;-82
2023/12/11 10:09:54;;;;;;;6.57;2.00;;;;;;;10.39;100.00;98813.22;6082571;23;20022;-82
2023/12/11 10:12:21;;;;;;;5.28;1.60;;;;;;;10.42;100.00;98815.53;6058407;23;20450;-81
2023/12/11 10:15:01;;;;;;;5.15;1.83;;;;;;;10.39;100.00;98807.91;6106435;23;20034;-81
2023/12/11 10:17:31;;;;;;;6.20;2.40;;;;;;;10.47;100.00;98791.19;6105725;23;20022;-81
2023/12/11 10:19:58;;;;;;;9.32;1.90;;;;;;;10.49;100.00;98786.56;6105785;23;20057;-82
2023/12/11 10:22:27;;;;;;;10.38;2.05;;;;;;;10.52;100.00;98784.41;6107575;23;20022;-82
2023/12/11 10:24:54;;;;;;;7.10;1.85;;;;;;;10.59;100.00;98780.09;6059157;23;20100;-82
2023/12/11 10:27:24;;;;;;;7.80;1.80;;;;;;;10.62;100.00;98778.97;6106916;23;20582;-82
2023/12/11 10:30:13;;;;;;;10.80;3.80;;;;;;;10.62;100.00;98784.25;6055998;23;20397;-81
2023/12/11 10:32:40;;;;;;;15.88;3.35;;;;;;;10.71;100.00;98780.66;6132366;23;20235;-81
2023/12/11 10:35:08;;;;;;;7.55;2.25;;;;;;;10.76;100.00;98773.03;6106030;23;20026;-81
2023/12/11 10:37:35;;;;;;;9.48;1.90;;;;;;;10.79;100.00;98778.00;6058196;23;20121;-82
2023/12/11 10:40:03;;;;;;;13.10;2.08;;;;;;;10.84;100.00;98778.34;6081646;23;20038;-82
2023/12/11 10:42:30;;;;;;;11.15;2.42;;;;;;;10.89;100.00;98777.88;6058845;23;20483;-81
2023/12/11 10:44:57;;;;;;;12.77;2.28;;;;;;;10.91;100.00;98765.22;6058303;23;20026;-81
2023/12/11 10:47:25;;;;;;;9.10;1.80;;;;;;;10.94;100.00;98769.38;6107606;23;20082;-81
2023/12/11 10:50:00;;;;;;;14.70;2.75;;;;;;;10.99;99.02;98761.75;6081514;23;20038;-81
2023/12/11 10:52:28;;;;;;;10.50;1.63;;;;;;;11.02;99.50;98759.59;6082641;23;20657;-82
2023/12/11 10:54:55;;;;;;;14.23;2.13;;;;;;;11.06;99.43;98768.06;6058003;23;20066;-82
2023/12/11 10:57:23;;;;;;;9.07;1.73;;;;;;;11.10;99.24;98769.41;6107869;23;20045;-82
2023/12/11 10:59:50;;;;;;;16.08;2.40;;;;;;;11.16;97.75;98751.97;6033252;23;20737;-81
2023/12/11 11:02:18;;;;;;;9.60;1.58;;;;;;;11.15;96.06;98751.16;6058203;23;20788;-82
2023/12/11 11:04:46;;;;;;;11.32;1.58;;;;;;;11.21;96.45;98749.66;6083188;23;20351;-82
2023/12/11 11:07:28;;;;;;;13.23;1.80;;;;;;;11.15;93.16;98753.81;6083703;23;20026;-82
2023/12/11 11:10:16;;;;;;;10.90;2.10;;;;;;;11.09;91.39;98770.38;6083385;23;20026;-81
2023/12/11 11:12:47;;;;;;;5.80;1.83;;;;;;;11.18;95.19;98772.06;6082991;23;20034;-81
2023/12/11 11:15:23;;;;;;;10.85;1.65;;;;;;;11.17;92.22;98753.63;6083953;23;20034;-81
2023/12/11 11:18:01;;;;;;;9.43;1.58;;;;;;;11.18;89.53;98772.06;6083483;23;20089;-81
2023/12/11 11:20:37;;;;;;;13.07;2.72;;;;;;;11.25;91.77;98773.06;6060267;23;20038;-81
2023/12/11 11:23:18;;;;;;;10.80;1.77;;;;;;;11.25;91.73;98772.25;6107944;23;20454;-81
2023/12/11 11:25:52;;;;;;;14.02;2.13;;;;;;;11.30;93.13;98773.41;6085030;23;20480;-81
2023/12/11 11:28:40;;;;;;;12.48;1.90;;;;;;;11.28;91.17;98767.41;6084687;23;20097;-81
2023/12/11 11:31:08;;;;;;;16.23;2.00;;;;;;;11.38;93.34;98769.09;6107367;23;20029;-81
2023/12/11 11:33:52;;;;;;;10.93;1.92;;;;;;;11.38;92.03;98766.44;6059624;23;20845;-82
2023/12/11 11:36:21;;;;;;;21.33;2.55;;;;;;;11.41;91.34;98764.25;6060034;23;20018;-81